sensor_id;sensor_type;location;lat;lon;timestamp;temperature;humidity
1329;DHT22;658;48.820;9.354;2022-07-23T00:01:30;27.10;51.80
1329;DHT22;658;48.820;9.354;2022-07-23T00:05:30;27.10;51.60
1329;DHT22;658;48.820;9.354;2022-07-23T00:09:31;27.00;51.20
1329;DHT22;658;48.820;9.354;2022-07-23T00:13:32;27.00;52.00
1329;DHT22;658;48.820;9.354;2022-07-23T00:17:33;27.00;51.60
1329;DHT22;658;48.820;9.354;2022-07-23T00:21:33;27.00;51.60
1329;DHT22;658;48.820;9.354;2022-07-23T00:25:34;27.00;51.40
1329;DHT22;658;48.820;9.354;2022-07-23T00:29:35;27.00;51.30
1329;DHT22;658;48.820;9.354;2022-07-23T00:33:35;27.00;51.70
1329;DHT22;658;48.820;9.354;2022-07-23T00:37:36;27.00;50.90
1329;DHT22;658;48.820;9.354;2022-07-23T00:41:36;26.90;50.50
1329;DHT22;658;48.820;9.354;2022-07-23T00:45:37;26.90;50.20
1329;DHT22;658;48.820;9.354;2022-07-23T00:49:38;27.00;50.20
1329;DHT22;658;48.820;9.354;2022-07-23T00:53:38;26.90;50.30
1329;DHT22;658;48.820;9.354;2022-07-23T00:57:40;26.90;50.00
1329;DHT22;658;48.820;9.354;2022-07-23T01:01:42;26.80;50.80
1329;DHT22;658;48.820;9.354;2022-07-23T01:05:45;26.80;51.20
1329;DHT22;658;48.820;9.354;2022-07-23T01:09:46;26.80;51.50
1329;DHT22;658;48.820;9.354;2022-07-23T01:13:47;26.80;51.60
1329;DHT22;658;48.820;9.354;2022-07-23T01:17:48;26.70;51.70
1329;DHT22;658;48.820;9.354;2022-07-23T01:21:50;26.70;51.70
1329;DHT22;658;48.820;9.354;2022-07-23T01:25:55;26.70;51.70
1329;DHT22;658;48.820;9.354;2022-07-23T01:29:57;26.70;51.80
1329;DHT22;658;48.820;9.354;2022-07-23T01:33:57;26.80;51.80
1329;DHT22;658;48.820;9.354;2022-07-23T01:37:58;26.70;52.10
1329;DHT22;658;48.820;9.354;2022-07-23T01:41:58;26.70;51.20
1329;DHT22;658;48.820;9.354;2022-07-23T01:45:59;26.60;51.50
1329;DHT22;658;48.820;9.354;2022-07-23T01:50:00;26.60;51.40
1329;DHT22;658;48.820;9.354;2022-07-23T01:54:00;26.60;51.10
1329;DHT22;658;48.820;9.354;2022-07-23T01:58:01;26.70;51.50
1329;DHT22;658;48.820;9.354;2022-07-23T02:02:02;26.60;51.40
1329;DHT22;658;48.820;9.354;2022-07-23T02:06:03;26.60;51.20
1329;DHT22;658;48.820;9.354;2022-07-23T02:10:04;26.70;51.30
1329;DHT22;658;48.820;9.354;2022-07-23T02:14:05;26.60;51.50
1329;DHT22;658;48.820;9.354;2022-07-23T02:18:06;26.70;51.40
1329;DHT22;658;48.820;9.354;2022-07-23T02:22:08;26.60;51.50
1329;DHT22;658;48.820;9.354;2022-07-23T02:26:09;26.60;51.50
1329;DHT22;658;48.820;9.354;2022-07-23T02:30:10;26.60;51.80
1329;DHT22;658;48.820;9.354;2022-07-23T02:34:11;26.60;52.20
1329;DHT22;658;48.820;9.354;2022-07-23T02:38:12;26.50;52.50
1329;DHT22;658;48.820;9.354;2022-07-23T02:42:12;26.50;52.70
1329;DHT22;658;48.820;9.354;2022-07-23T02:46:13;26.50;52.70
1329;DHT22;658;48.820;9.354;2022-07-23T02:50:14;26.50;53.40
1329;DHT22;658;48.820;9.354;2022-07-23T02:54:14;26.50;53.00
1329;DHT22;658;48.820;9.354;2022-07-23T02:58:15;26.50;53.20
1329;DHT22;658;48.820;9.354;2022-07-23T03:02:15;26.40;53.20
1329;DHT22;658;48.820;9.354;2022-07-23T03:06:16;26.40;53.10
1329;DHT22;658;48.820;9.354;2022-07-23T03:10:17;26.40;53.20
1329;DHT22;658;48.820;9.354;2022-07-23T03:14:17;26.50;53.20
1329;DHT22;658;48.820;9.354;2022-07-23T03:18:18;26.40;53.20
1329;DHT22;658;48.820;9.354;2022-07-23T03:22:18;26.40;53.40
1329;DHT22;658;48.820;9.354;2022-07-23T03:26:19;26.40;53.50
1329;DHT22;658;48.820;9.354;2022-07-23T03:30:20;26.30;53.70
1329;DHT22;658;48.820;9.354;2022-07-23T03:34:20;26.30;53.70
1329;DHT22;658;48.820;9.354;2022-07-23T03:38:21;26.40;53.80
1329;DHT22;658;48.820;9.354;2022-07-23T03:42:21;26.40;53.70
1329;DHT22;658;48.820;9.354;2022-07-23T03:46:22;26.40;53.80
1329;DHT22;658;48.820;9.354;2022-07-23T03:50:23;26.40;53.90
1329;DHT22;658;48.820;9.354;2022-07-23T03:54:24;26.40;54.20
1329;DHT22;658;48.820;9.354;2022-07-23T03:58:24;26.40;54.20
1329;DHT22;658;48.820;9.354;2022-07-23T04:02:26;26.30;54.40
1329;DHT22;658;48.820;9.354;2022-07-23T04:06:26;26.30;54.60
1329;DHT22;658;48.820;9.354;2022-07-23T04:10:27;26.30;54.70
1329;DHT22;658;48.820;9.354;2022-07-23T04:14:28;26.30;54.70
1329;DHT22;658;48.820;9.354;2022-07-23T04:18:28;26.30;54.80
1329;DHT22;658;48.820;9.354;2022-07-23T04:22:29;26.30;54.90
1329;DHT22;658;48.820;9.354;2022-07-23T04:26:30;26.30;54.90
1329;DHT22;658;48.820;9.354;2022-07-23T04:30:30;26.30;55.00
1329;DHT22;658;48.820;9.354;2022-07-23T04:34:31;26.20;54.90
1329;DHT22;658;48.820;9.354;2022-07-23T04:38:31;26.20;55.00
1329;DHT22;658;48.820;9.354;2022-07-23T04:42:32;26.20;55.00
1329;DHT22;658;48.820;9.354;2022-07-23T04:46:33;26.20;55.00
1329;DHT22;658;48.820;9.354;2022-07-23T04:50:34;26.20;55.10
1329;DHT22;658;48.820;9.354;2022-07-23T04:54:34;26.20;55.00
1329;DHT22;658;48.820;9.354;2022-07-23T04:58:35;26.20;55.10
1329;DHT22;658;48.820;9.354;2022-07-23T05:02:36;26.20;55.40
1329;DHT22;658;48.820;9.354;2022-07-23T05:06:37;26.20;55.40
1329;DHT22;658;48.820;9.354;2022-07-23T05:10:37;26.20;55.60
1329;DHT22;658;48.820;9.354;2022-07-23T05:14:38;26.20;55.80
1329;DHT22;658;48.820;9.354;2022-07-23T05:18:38;26.10;56.10
1329;DHT22;658;48.820;9.354;2022-07-23T05:22:39;25.90;56.70
1329;DHT22;658;48.820;9.354;2022-07-23T05:26:40;25.90;57.30
1329;DHT22;658;48.820;9.354;2022-07-23T05:30:41;25.90;57.10
1329;DHT22;658;48.820;9.354;2022-07-23T05:34:41;25.90;57.70
1329;DHT22;658;48.820;9.354;2022-07-23T05:38:42;25.90;57.50
1329;DHT22;658;48.820;9.354;2022-07-23T05:42:43;25.80;57.90
1329;DHT22;658;48.820;9.354;2022-07-23T05:46:43;25.80;57.90
1329;DHT22;658;48.820;9.354;2022-07-23T05:50:44;25.70;57.80
1329;DHT22;658;48.820;9.354;2022-07-23T05:54:44;25.70;57.60
1329;DHT22;658;48.820;9.354;2022-07-23T05:58:45;25.70;57.40
1329;DHT22;658;48.820;9.354;2022-07-23T06:02:46;25.60;57.50
1329;DHT22;658;48.820;9.354;2022-07-23T06:06:46;25.70;57.70
1329;DHT22;658;48.820;9.354;2022-07-23T06:10:47;25.80;57.80
1329;DHT22;658;48.820;9.354;2022-07-23T06:14:48;25.80;57.80
1329;DHT22;658;48.820;9.354;2022-07-23T06:18:50;25.90;58.00
1329;DHT22;658;48.820;9.354;2022-07-23T06:22:50;25.70;58.90
1329;DHT22;658;48.820;9.354;2022-07-23T06:26:51;25.70;58.40
1329;DHT22;658;48.820;9.354;2022-07-23T06:30:51;25.70;58.30
1329;DHT22;658;48.820;9.354;2022-07-23T06:34:52;25.70;58.00
1329;DHT22;658;48.820;9.354;2022-07-23T06:38:53;25.70;58.00
1329;DHT22;658;48.820;9.354;2022-07-23T06:42:53;25.70;57.70
1329;DHT22;658;48.820;9.354;2022-07-23T06:46:54;25.60;57.70
1329;DHT22;658;48.820;9.354;2022-07-23T06:50:54;25.50;57.80
1329;DHT22;658;48.820;9.354;2022-07-23T06:54:55;25.50;57.30
1329;DHT22;658;48.820;9.354;2022-07-23T06:58:56;25.50;56.80
1329;DHT22;658;48.820;9.354;2022-07-23T07:02:57;25.50;56.40
1329;DHT22;658;48.820;9.354;2022-07-23T07:06:57;25.50;56.10
1329;DHT22;658;48.820;9.354;2022-07-23T07:10:58;25.40;56.30
1329;DHT22;658;48.820;9.354;2022-07-23T07:14:59;25.30;56.40
1329;DHT22;658;48.820;9.354;2022-07-23T07:18:59;25.30;56.80
1329;DHT22;658;48.820;9.354;2022-07-23T07:23:00;25.20;57.10
1329;DHT22;658;48.820;9.354;2022-07-23T07:27:01;25.20;57.50
1329;DHT22;658;48.820;9.354;2022-07-23T07:31:01;25.20;57.50
1329;DHT22;658;48.820;9.354;2022-07-23T07:35:05;25.20;57.90
1329;DHT22;658;48.820;9.354;2022-07-23T07:39:06;25.20;58.70
1329;DHT22;658;48.820;9.354;2022-07-23T07:43:07;25.10;58.70
1329;DHT22;658;48.820;9.354;2022-07-23T07:47:07;25.00;59.10
1329;DHT22;658;48.820;9.354;2022-07-23T07:51:08;25.10;59.20
1329;DHT22;658;48.820;9.354;2022-07-23T07:55:10;25.10;59.20
1329;DHT22;658;48.820;9.354;2022-07-23T07:59:11;25.10;59.30
1329;DHT22;658;48.820;9.354;2022-07-23T08:03:12;25.10;59.60
1329;DHT22;658;48.820;9.354;2022-07-23T08:07:12;24.90;59.80
1329;DHT22;658;48.820;9.354;2022-07-23T08:11:13;24.80;61.00
1329;DHT22;658;48.820;9.354;2022-07-23T08:15:15;24.80;61.40
1329;DHT22;658;48.820;9.354;2022-07-23T08:19:16;24.80;61.30
1329;DHT22;658;48.820;9.354;2022-07-23T08:23:17;24.80;61.30
1329;DHT22;658;48.820;9.354;2022-07-23T08:27:19;24.70;61.90
1329;DHT22;658;48.820;9.354;2022-07-23T08:31:20;24.70;62.10
1329;DHT22;658;48.820;9.354;2022-07-23T08:35:34;24.80;62.30
1329;DHT22;658;48.820;9.354;2022-07-23T08:39:35;24.90;62.30
1329;DHT22;658;48.820;9.354;2022-07-23T08:43:36;24.80;62.50
1329;DHT22;658;48.820;9.354;2022-07-23T08:47:39;24.90;62.00
1329;DHT22;658;48.820;9.354;2022-07-23T08:51:40;24.90;61.90
1329;DHT22;658;48.820;9.354;2022-07-23T08:55:49;25.00;61.90
1329;DHT22;658;48.820;9.354;2022-07-23T08:59:50;25.00;62.00
1329;DHT22;658;48.820;9.354;2022-07-23T09:03:50;25.00;62.30
1329;DHT22;658;48.820;9.354;2022-07-23T09:08:11;25.10;62.10
1329;DHT22;658;48.820;9.354;2022-07-23T09:12:12;25.10;62.40
1329;DHT22;658;48.820;9.354;2022-07-23T09:16:15;25.20;61.30
1329;DHT22;658;48.820;9.354;2022-07-23T09:20:17;25.30;60.80
1329;DHT22;658;48.820;9.354;2022-07-23T09:24:17;25.20;59.90
1329;DHT22;658;48.820;9.354;2022-07-23T09:28:20;25.20;59.60
1329;DHT22;658;48.820;9.354;2022-07-23T09:32:21;25.20;59.50
1329;DHT22;658;48.820;9.354;2022-07-23T09:36:30;25.30;59.20
1329;DHT22;658;48.820;9.354;2022-07-23T09:40:31;25.40;58.90
1329;DHT22;658;48.820;9.354;2022-07-23T09:44:41;25.50;58.60
1329;DHT22;658;48.820;9.354;2022-07-23T09:48:41;25.60;58.80
1329;DHT22;658;48.820;9.354;2022-07-23T09:52:44;25.60;58.10
1329;DHT22;658;48.820;9.354;2022-07-23T09:56:47;25.60;58.10
1329;DHT22;658;48.820;9.354;2022-07-23T10:00:49;25.60;57.10
1329;DHT22;658;48.820;9.354;2022-07-23T10:04:53;25.70;56.80
1329;DHT22;658;48.820;9.354;2022-07-23T10:08:58;25.70;55.80
1329;DHT22;658;48.820;9.354;2022-07-23T10:13:00;25.70;55.40
1329;DHT22;658;48.820;9.354;2022-07-23T10:17:39;25.80;55.40
1329;DHT22;658;48.820;9.354;2022-07-23T10:21:46;25.80;55.80
1329;DHT22;658;48.820;9.354;2022-07-23T10:34:31;25.90;55.60
1329;DHT22;658;48.820;9.354;2022-07-23T10:38:52;25.90;55.50
1329;DHT22;658;48.820;9.354;2022-07-23T10:42:59;25.90;55.10
1329;DHT22;658;48.820;9.354;2022-07-23T10:47:03;26.00;54.80
1329;DHT22;658;48.820;9.354;2022-07-23T10:51:15;26.00;54.30
1329;DHT22;658;48.820;9.354;2022-07-23T10:59:17;26.10;53.00
1329;DHT22;658;48.820;9.354;2022-07-23T11:03:31;26.10;52.90
1329;DHT22;658;48.820;9.354;2022-07-23T11:07:33;26.20;52.70
1329;DHT22;658;48.820;9.354;2022-07-23T11:11:34;26.20;52.70
1329;DHT22;658;48.820;9.354;2022-07-23T11:24:17;26.30;52.40
1329;DHT22;658;48.820;9.354;2022-07-23T11:28:18;26.30;52.40
1329;DHT22;658;48.820;9.354;2022-07-23T11:32:28;26.30;52.50
1329;DHT22;658;48.820;9.354;2022-07-23T11:36:49;26.30;52.90
1329;DHT22;658;48.820;9.354;2022-07-23T11:40:52;26.40;53.90
1329;DHT22;658;48.820;9.354;2022-07-23T11:44:52;26.30;52.90
1329;DHT22;658;48.820;9.354;2022-07-23T11:49:02;26.40;52.90
1329;DHT22;658;48.820;9.354;2022-07-23T11:53:03;26.50;52.80
1329;DHT22;658;48.820;9.354;2022-07-23T11:57:04;26.50;53.00
1329;DHT22;658;48.820;9.354;2022-07-23T12:01:05;26.50;53.00
1329;DHT22;658;48.820;9.354;2022-07-23T12:05:06;26.60;52.90
1329;DHT22;658;48.820;9.354;2022-07-23T12:09:07;26.60;52.70
1329;DHT22;658;48.820;9.354;2022-07-23T12:13:13;26.60;52.10
1329;DHT22;658;48.820;9.354;2022-07-23T12:17:14;26.70;51.70
1329;DHT22;658;48.820;9.354;2022-07-23T12:21:15;26.70;51.30
1329;DHT22;658;48.820;9.354;2022-07-23T12:25:20;26.80;51.60
1329;DHT22;658;48.820;9.354;2022-07-23T12:29:22;26.80;51.40
1329;DHT22;658;48.820;9.354;2022-07-23T12:33:36;26.80;51.60
1329;DHT22;658;48.820;9.354;2022-07-23T12:37:40;26.80;51.60
1329;DHT22;658;48.820;9.354;2022-07-23T12:41:53;26.80;51.20
1329;DHT22;658;48.820;9.354;2022-07-23T12:46:10;26.80;51.10
1329;DHT22;658;48.820;9.354;2022-07-23T12:50:34;26.80;51.00
1329;DHT22;658;48.820;9.354;2022-07-23T12:54:34;26.90;51.00
1329;DHT22;658;48.820;9.354;2022-07-23T13:02:51;27.00;51.10
1329;DHT22;658;48.820;9.354;2022-07-23T13:06:58;27.00;50.90
1329;DHT22;658;48.820;9.354;2022-07-23T13:10:59;27.00;50.90
1329;DHT22;658;48.820;9.354;2022-07-23T13:15:00;27.00;51.00
1329;DHT22;658;48.820;9.354;2022-07-23T13:19:01;27.00;51.10
1329;DHT22;658;48.820;9.354;2022-07-23T13:23:01;27.10;51.40
1329;DHT22;658;48.820;9.354;2022-07-23T13:27:02;27.10;51.40
1329;DHT22;658;48.820;9.354;2022-07-23T13:31:03;27.10;51.70
1329;DHT22;658;48.820;9.354;2022-07-23T13:35:04;27.20;51.60
1329;DHT22;658;48.820;9.354;2022-07-23T13:39:06;27.20;51.50
1329;DHT22;658;48.820;9.354;2022-07-23T13:43:06;27.30;51.50
1329;DHT22;658;48.820;9.354;2022-07-23T13:47:07;27.40;51.60
1329;DHT22;658;48.820;9.354;2022-07-23T13:51:08;27.50;51.80
1329;DHT22;658;48.820;9.354;2022-07-23T13:55:09;27.50;50.60
1329;DHT22;658;48.820;9.354;2022-07-23T13:59:09;27.50;50.30
1329;DHT22;658;48.820;9.354;2022-07-23T14:03:11;27.50;50.30
1329;DHT22;658;48.820;9.354;2022-07-23T14:07:12;27.50;50.50
1329;DHT22;658;48.820;9.354;2022-07-23T14:11:12;27.60;50.50
1329;DHT22;658;48.820;9.354;2022-07-23T14:15:14;27.60;50.50
1329;DHT22;658;48.820;9.354;2022-07-23T14:19:15;27.60;50.60
1329;DHT22;658;48.820;9.354;2022-07-23T14:23:15;27.60;50.90
1329;DHT22;658;48.820;9.354;2022-07-23T14:27:16;27.50;51.40
1329;DHT22;658;48.820;9.354;2022-07-23T14:31:17;27.40;51.50
1329;DHT22;658;48.820;9.354;2022-07-23T14:35:17;27.50;51.40
1329;DHT22;658;48.820;9.354;2022-07-23T14:39:19;27.50;51.90
1329;DHT22;658;48.820;9.354;2022-07-23T14:43:20;27.60;51.50
1329;DHT22;658;48.820;9.354;2022-07-23T14:47:20;27.80;51.10
1329;DHT22;658;48.820;9.354;2022-07-23T14:51:22;27.80;50.90
1329;DHT22;658;48.820;9.354;2022-07-23T14:55:22;27.90;50.90
1329;DHT22;658;48.820;9.354;2022-07-23T14:59:24;28.00;50.60
1329;DHT22;658;48.820;9.354;2022-07-23T15:03:25;28.10;50.10
1329;DHT22;658;48.820;9.354;2022-07-23T15:07:25;28.20;49.80
1329;DHT22;658;48.820;9.354;2022-07-23T15:11:27;28.20;49.90
1329;DHT22;658;48.820;9.354;2022-07-23T15:15:30;28.30;50.10
1329;DHT22;658;48.820;9.354;2022-07-23T15:19:31;28.30;49.60
1329;DHT22;658;48.820;9.354;2022-07-23T15:23:31;28.30;49.60
1329;DHT22;658;48.820;9.354;2022-07-23T15:27:32;28.30;49.60
1329;DHT22;658;48.820;9.354;2022-07-23T15:31:32;28.30;49.50
1329;DHT22;658;48.820;9.354;2022-07-23T15:35:33;28.20;49.30
1329;DHT22;658;48.820;9.354;2022-07-23T15:39:34;28.20;49.70
1329;DHT22;658;48.820;9.354;2022-07-23T15:43:35;28.20;49.60
1329;DHT22;658;48.820;9.354;2022-07-23T15:47:35;28.20;49.90
1329;DHT22;658;48.820;9.354;2022-07-23T15:51:36;28.20;49.80
1329;DHT22;658;48.820;9.354;2022-07-23T15:55:38;28.10;50.00
1329;DHT22;658;48.820;9.354;2022-07-23T15:59:38;28.10;50.20
1329;DHT22;658;48.820;9.354;2022-07-23T16:03:39;28.00;50.30
1329;DHT22;658;48.820;9.354;2022-07-23T16:07:40;27.90;50.50
1329;DHT22;658;48.820;9.354;2022-07-23T16:11:41;28.00;50.50
1329;DHT22;658;48.820;9.354;2022-07-23T16:15:42;28.00;50.40
1329;DHT22;658;48.820;9.354;2022-07-23T16:19:42;28.00;50.50
1329;DHT22;658;48.820;9.354;2022-07-23T16:23:43;28.00;50.50
1329;DHT22;658;48.820;9.354;2022-07-23T16:27:44;28.00;50.50
1329;DHT22;658;48.820;9.354;2022-07-23T16:31:45;28.00;50.60
1329;DHT22;658;48.820;9.354;2022-07-23T16:35:46;27.90;50.50
1329;DHT22;658;48.820;9.354;2022-07-23T16:39:46;27.90;50.90
1329;DHT22;658;48.820;9.354;2022-07-23T16:43:47;27.90;50.90
1329;DHT22;658;48.820;9.354;2022-07-23T16:47:48;28.10;50.80
1329;DHT22;658;48.820;9.354;2022-07-23T16:51:49;28.10;50.80
1329;DHT22;658;48.820;9.354;2022-07-23T16:55:50;28.20;50.60
1329;DHT22;658;48.820;9.354;2022-07-23T16:59:51;28.20;50.50
1329;DHT22;658;48.820;9.354;2022-07-23T17:03:52;28.30;50.60
1329;DHT22;658;48.820;9.354;2022-07-23T17:07:53;28.40;50.60
1329;DHT22;658;48.820;9.354;2022-07-23T17:11:54;28.40;50.40
1329;DHT22;658;48.820;9.354;2022-07-23T17:15:55;28.40;50.50
1329;DHT22;658;48.820;9.354;2022-07-23T17:19:56;28.50;50.30
1329;DHT22;658;48.820;9.354;2022-07-23T17:23:56;28.50;50.30
1329;DHT22;658;48.820;9.354;2022-07-23T17:27:57;28.60;50.40
1329;DHT22;658;48.820;9.354;2022-07-23T17:31:58;28.60;50.30
1329;DHT22;658;48.820;9.354;2022-07-23T17:35:59;28.60;50.40
1329;DHT22;658;48.820;9.354;2022-07-23T17:40:00;28.50;50.40
1329;DHT22;658;48.820;9.354;2022-07-23T17:44:02;28.40;50.60
1329;DHT22;658;48.820;9.354;2022-07-23T17:48:03;28.40;50.60
1329;DHT22;658;48.820;9.354;2022-07-23T17:52:04;28.30;50.70
1329;DHT22;658;48.820;9.354;2022-07-23T17:56:05;28.40;50.60
1329;DHT22;658;48.820;9.354;2022-07-23T18:00:07;28.30;50.40
1329;DHT22;658;48.820;9.354;2022-07-23T18:04:09;28.40;50.50
1329;DHT22;658;48.820;9.354;2022-07-23T18:08:11;28.40;50.40
1329;DHT22;658;48.820;9.354;2022-07-23T18:12:12;28.40;50.60
1329;DHT22;658;48.820;9.354;2022-07-23T18:16:13;28.30;50.50
1329;DHT22;658;48.820;9.354;2022-07-23T18:20:14;28.30;50.50
1329;DHT22;658;48.820;9.354;2022-07-23T18:24:14;28.30;50.50
1329;DHT22;658;48.820;9.354;2022-07-23T18:28:15;28.40;50.60
1329;DHT22;658;48.820;9.354;2022-07-23T18:32:16;28.40;50.80
1329;DHT22;658;48.820;9.354;2022-07-23T18:36:16;28.50;50.40
1329;DHT22;658;48.820;9.354;2022-07-23T18:40:17;28.60;50.40
1329;DHT22;658;48.820;9.354;2022-07-23T18:44:18;28.50;50.60
1329;DHT22;658;48.820;9.354;2022-07-23T18:48:19;28.40;50.80
1329;DHT22;658;48.820;9.354;2022-07-23T18:52:20;28.40;50.90
1329;DHT22;658;48.820;9.354;2022-07-23T18:56:20;28.40;51.00
1329;DHT22;658;48.820;9.354;2022-07-23T19:00:21;28.40;50.90
1329;DHT22;658;48.820;9.354;2022-07-23T19:04:22;28.40;51.00
1329;DHT22;658;48.820;9.354;2022-07-23T19:08:22;28.40;51.00
1329;DHT22;658;48.820;9.354;2022-07-23T19:12:23;28.30;51.10
1329;DHT22;658;48.820;9.354;2022-07-23T19:16:24;28.30;51.10
1329;DHT22;658;48.820;9.354;2022-07-23T19:20:25;28.40;51.20
1329;DHT22;658;48.820;9.354;2022-07-23T19:24:25;28.30;51.10
1329;DHT22;658;48.820;9.354;2022-07-23T19:28:26;28.30;51.20
1329;DHT22;658;48.820;9.354;2022-07-23T19:32:27;28.40;51.30
1329;DHT22;658;48.820;9.354;2022-07-23T19:36:28;28.20;52.70
1329;DHT22;658;48.820;9.354;2022-07-23T19:40:28;27.80;53.90
1329;DHT22;658;48.820;9.354;2022-07-23T19:44:29;27.60;55.00
1329;DHT22;658;48.820;9.354;2022-07-23T19:48:29;27.60;55.00
1329;DHT22;658;48.820;9.354;2022-07-23T19:52:30;27.60;55.90
1329;DHT22;658;48.820;9.354;2022-07-23T19:56:33;27.20;56.70
1329;DHT22;658;48.820;9.354;2022-07-23T20:00:34;27.10;57.30
1329;DHT22;658;48.820;9.354;2022-07-23T20:04:35;27.00;57.40
1329;DHT22;658;48.820;9.354;2022-07-23T20:08:36;27.00;57.50
1329;DHT22;658;48.820;9.354;2022-07-23T20:12:37;26.90;58.00
1329;DHT22;658;48.820;9.354;2022-07-23T20:16:38;26.80;58.20
1329;DHT22;658;48.820;9.354;2022-07-23T20:20:39;26.80;58.00
1329;DHT22;658;48.820;9.354;2022-07-23T20:24:39;26.90;57.50
1329;DHT22;658;48.820;9.354;2022-07-23T20:28:40;26.90;57.50
1329;DHT22;658;48.820;9.354;2022-07-23T20:32:40;26.80;57.80
1329;DHT22;658;48.820;9.354;2022-07-23T20:36:42;26.80;57.80
1329;DHT22;658;48.820;9.354;2022-07-23T20:40:43;26.90;57.70
1329;DHT22;658;48.820;9.354;2022-07-23T20:44:44;26.80;58.00
1329;DHT22;658;48.820;9.354;2022-07-23T20:48:45;26.70;58.10
1329;DHT22;658;48.820;9.354;2022-07-23T20:52:46;26.70;58.10
1329;DHT22;658;48.820;9.354;2022-07-23T20:56:46;26.70;58.30
1329;DHT22;658;48.820;9.354;2022-07-23T21:00:47;26.80;58.20
1329;DHT22;658;48.820;9.354;2022-07-23T21:04:48;26.80;57.80
1329;DHT22;658;48.820;9.354;2022-07-23T21:08:50;26.70;58.40
1329;DHT22;658;48.820;9.354;2022-07-23T21:12:50;26.50;58.60
1329;DHT22;658;48.820;9.354;2022-07-23T21:16:51;26.50;58.80
1329;DHT22;658;48.820;9.354;2022-07-23T21:20:52;26.30;59.10
1329;DHT22;658;48.820;9.354;2022-07-23T21:25:13;26.30;59.50
1329;DHT22;658;48.820;9.354;2022-07-23T21:29:14;26.20;59.60
1329;DHT22;658;48.820;9.354;2022-07-23T21:33:14;26.20;59.70
1329;DHT22;658;48.820;9.354;2022-07-23T21:37:15;26.20;59.90
1329;DHT22;658;48.820;9.354;2022-07-23T21:41:16;26.00;60.00
1329;DHT22;658;48.820;9.354;2022-07-23T21:45:16;26.00;60.30
1329;DHT22;658;48.820;9.354;2022-07-23T21:49:17;25.90;60.50
1329;DHT22;658;48.820;9.354;2022-07-23T21:53:18;26.00;60.60
1329;DHT22;658;48.820;9.354;2022-07-23T21:57:19;26.20;59.60
1329;DHT22;658;48.820;9.354;2022-07-23T22:01:19;26.30;59.00
1329;DHT22;658;48.820;9.354;2022-07-23T22:05:21;26.40;58.70
1329;DHT22;658;48.820;9.354;2022-07-23T22:09:21;26.60;58.30
1329;DHT22;658;48.820;9.354;2022-07-23T22:13:22;26.60;58.10
1329;DHT22;658;48.820;9.354;2022-07-23T22:17:23;26.70;58.00
1329;DHT22;658;48.820;9.354;2022-07-23T22:21:23;26.70;57.90
1329;DHT22;658;48.820;9.354;2022-07-23T22:25:24;26.70;57.90
1329;DHT22;658;48.820;9.354;2022-07-23T22:29:25;26.70;57.90
1329;DHT22;658;48.820;9.354;2022-07-23T22:33:25;26.70;57.90
1329;DHT22;658;48.820;9.354;2022-07-23T22:37:26;26.70;58.00
1329;DHT22;658;48.820;9.354;2022-07-23T22:41:27;26.70;58.00
1329;DHT22;658;48.820;9.354;2022-07-23T22:45:27;26.70;58.00
1329;DHT22;658;48.820;9.354;2022-07-23T22:49:28;26.70;58.40
1329;DHT22;658;48.820;9.354;2022-07-23T22:53:29;26.60;58.50
1329;DHT22;658;48.820;9.354;2022-07-23T22:57:30;26.60;58.40
1329;DHT22;658;48.820;9.354;2022-07-23T23:01:30;26.60;58.30
1329;DHT22;658;48.820;9.354;2022-07-23T23:05:31;26.60;58.20
1329;DHT22;658;48.820;9.354;2022-07-23T23:09:31;26.60;58.10
1329;DHT22;658;48.820;9.354;2022-07-23T23:13:33;26.70;58.20
1329;DHT22;658;48.820;9.354;2022-07-23T23:17:33;26.60;58.10
1329;DHT22;658;48.820;9.354;2022-07-23T23:21:34;26.60;58.20
1329;DHT22;658;48.820;9.354;2022-07-23T23:25:35;26.60;58.10
1329;DHT22;658;48.820;9.354;2022-07-23T23:29:36;26.50;58.20
1329;DHT22;658;48.820;9.354;2022-07-23T23:33:36;26.50;58.20
1329;DHT22;658;48.820;9.354;2022-07-23T23:37:37;26.50;58.20
1329;DHT22;658;48.820;9.354;2022-07-23T23:41:37;26.40;58.20
1329;DHT22;658;48.820;9.354;2022-07-23T23:45:39;26.40;58.30
1329;DHT22;658;48.820;9.354;2022-07-23T23:49:40;26.40;58.30
1329;DHT22;658;48.820;9.354;2022-07-23T23:53:40;26.40;58.40
1329;DHT22;658;48.820;9.354;2022-07-23T23:57:41;26.40;58.50
